Terminal Aerodrome Forecast
Issued by NWS Grand Forks, ND

Home | Current Version | Previous Version | Text Only | Print | Product List | Glossary Off
Versions: 1 2 3 4 5 6 7 8 9 10 11 12 13 14 15 16 17 18 19 20

000
FTUS43 KFGF 232334
TAFGFK
TAF
KGFK 232334Z 2400/2424 06010KT P6SM VCSH BKN070
      TEMPO 2400/2401 -SHRA
     FM240200 07009KT P6SM SCT100
     FM241700 11009KT P6SM FEW050=

USA.gov is the U.S. government's official web portal to all federal, state and local government web resources and services.